createdAt,value
2022-12-03T00:00:11.845Z,14.60
2022-12-03T00:05:14.443Z,15.63
2022-12-03T00:10:16.271Z,15.97
2022-12-03T00:15:18.263Z,16.57
2022-12-03T00:20:22.734Z,15.37
2022-12-03T00:25:24.455Z,15.93
2022-12-03T00:30:26.191Z,16.30
2022-12-03T00:35:27.922Z,14.37
2022-12-03T00:40:29.916Z,15.70
2022-12-03T00:45:31.688Z,14.67
2022-12-03T00:50:33.585Z,14.80
2022-12-03T00:55:35.309Z,15.27
2022-12-03T01:00:37.831Z,15.90
2022-12-03T01:05:39.748Z,15.07
2022-12-03T01:10:41.689Z,16.33
2022-12-03T01:15:43.630Z,15.67
2022-12-03T01:20:45.442Z,15.13
2022-12-03T01:25:48.106Z,15.63
2022-12-03T01:31:09.741Z,16.80
2022-12-03T01:36:12.871Z,14.63
2022-12-03T01:41:17.115Z,16.60
2022-12-03T01:46:22.039Z,15.57
2022-12-03T01:51:24.036Z,16.87
2022-12-03T01:56:26.068Z,14.63
2022-12-03T02:01:28.049Z,15.50
2022-12-03T02:06:30.318Z,14.13
2022-12-03T02:11:37.223Z,14.53
2022-12-03T02:16:41.173Z,15.03
2022-12-03T02:22:09.327Z,14.67
2022-12-03T02:27:11.518Z,13.97
2022-12-03T02:32:13.400Z,15.40
2022-12-03T02:37:36.575Z,14.60
2022-12-03T02:42:39.313Z,14.63
2022-12-03T02:47:53.723Z,15.93
2022-12-03T02:52:57.650Z,15.17
2022-12-03T02:58:02.597Z,15.53
2022-12-03T03:03:06.603Z,17.13
2022-12-03T03:08:10.068Z,17.07
2022-12-03T03:13:16.201Z,16.87
2022-12-03T03:18:18.969Z,16.47
2022-12-03T03:23:23.911Z,17.23
2022-12-03T03:28:26.437Z,14.23
2022-12-03T03:33:28.710Z,15.50
2022-12-03T03:38:31.243Z,13.97
2022-12-03T03:43:35.461Z,16.47
2022-12-03T03:48:37.986Z,15.23
2022-12-03T03:53:43.458Z,14.67
2022-12-03T03:58:45.269Z,14.63
2022-12-03T04:03:47.060Z,17.03
2022-12-03T04:08:49.002Z,14.80
2022-12-03T04:13:50.878Z,14.93
2022-12-03T04:18:52.835Z,15.70
2022-12-03T04:23:54.593Z,15.67
2022-12-03T04:28:56.627Z,14.07
2022-12-03T04:34:17.014Z,14.47
2022-12-03T04:39:18.905Z,16.67
2022-12-03T04:44:39.024Z,14.97
2022-12-03T04:49:43.286Z,15.73
2022-12-03T04:54:45.966Z,14.30
2022-12-03T04:59:47.975Z,12.97
2022-12-03T05:04:49.878Z,14.77
2022-12-03T05:09:51.851Z,13.77
2022-12-03T05:14:54.020Z,15.27
2022-12-03T05:20:14.406Z,15.07
2022-12-03T05:25:16.323Z,14.00
2022-12-03T05:30:18.279Z,13.97
2022-12-03T05:35:20.231Z,14.30
2022-12-03T05:40:22.426Z,15.23
2022-12-03T05:45:51.455Z,15.43
2022-12-03T05:50:53.391Z,15.23
2022-12-03T05:55:55.110Z,14.63
2022-12-03T06:00:57.006Z,15.53
2022-12-03T06:05:58.905Z,16.27
2022-12-03T06:11:01.452Z,16.30
2022-12-03T06:16:03.408Z,15.27
2022-12-03T06:21:05.383Z,17.10
2022-12-03T06:26:07.219Z,16.90
2022-12-03T06:31:09.189Z,17.30
2022-12-03T06:36:11.135Z,17.80
2022-12-03T06:41:13.072Z,16.37
2022-12-03T06:46:14.913Z,17.83
2022-12-03T06:51:16.723Z,18.37
2022-12-03T06:56:22.043Z,17.00
2022-12-03T07:01:24.333Z,16.87
2022-12-03T07:06:26.263Z,16.60
2022-12-03T07:11:39.999Z,17.87
2022-12-03T07:16:43.391Z,17.30
2022-12-03T07:21:45.424Z,17.13
2022-12-03T07:26:47.253Z,18.73
2022-12-03T07:31:49.011Z,16.97
2022-12-03T07:36:51.019Z,18.73
2022-12-03T07:41:52.790Z,17.17
2022-12-03T07:46:54.611Z,17.93
2022-12-03T07:51:57.161Z,18.47
2022-12-03T07:57:01.667Z,16.83
2022-12-03T08:02:04.043Z,17.87
2022-12-03T08:07:06.208Z,17.83
2022-12-03T08:12:16.969Z,18.73
2022-12-03T08:17:21.635Z,19.07
2022-12-03T08:22:24.673Z,18.80
2022-12-03T08:27:26.392Z,18.20
2022-12-03T08:32:28.399Z,18.37
2022-12-03T08:37:30.263Z,16.93
2022-12-03T08:42:42.929Z,18.80
2022-12-03T08:47:44.773Z,19.80
2022-12-03T08:52:46.655Z,19.00
2022-12-03T08:57:48.561Z,19.43
2022-12-03T09:03:01.763Z,18.60
2022-12-03T09:08:03.773Z,18.87
2022-12-03T09:13:05.595Z,18.73
2022-12-03T09:18:07.623Z,19.60
2022-12-03T09:23:09.621Z,20.33
2022-12-03T09:28:11.558Z,21.10
2022-12-03T09:33:14.047Z,19.17
2022-12-03T09:38:15.813Z,20.90
2022-12-03T09:43:18.527Z,20.07
2022-12-03T09:48:20.983Z,19.97
2022-12-03T09:53:26.691Z,19.23
2022-12-03T09:58:34.340Z,18.40
2022-12-03T10:03:39.243Z,20.43
2022-12-03T10:08:42.311Z,20.83
2022-12-03T10:13:44.688Z,19.63
2022-12-03T10:18:53.036Z,18.93
2022-12-03T10:24:16.534Z,18.57
2022-12-03T10:29:33.185Z,17.80
2022-12-03T10:34:38.574Z,19.40
2022-12-03T10:39:56.301Z,17.87
2022-12-03T10:45:18.334Z,20.37
2022-12-03T10:50:20.277Z,18.37
2022-12-03T10:55:22.422Z,18.67
2022-12-03T11:00:24.384Z,19.47
2022-12-03T11:05:28.241Z,19.73
2022-12-03T11:10:30.335Z,18.67
2022-12-03T11:15:44.218Z,17.90
2022-12-03T11:20:45.998Z,19.60
2022-12-03T11:25:50.566Z,17.73
2022-12-03T11:30:53.501Z,18.77
2022-12-03T11:36:04.353Z,18.90
2022-12-03T11:42:01.635Z,18.97
2022-12-03T11:47:11.920Z,19.33
2022-12-03T11:52:27.347Z,18.27
2022-12-03T11:57:35.448Z,18.23
2022-12-03T12:02:37.382Z,17.37
2022-12-03T12:07:39.361Z,15.37
2022-12-03T12:12:51.086Z,17.17
2022-12-03T12:17:56.399Z,16.70
2022-12-03T12:23:20.902Z,16.10
2022-12-03T12:28:24.883Z,17.90
2022-12-03T12:33:26.666Z,16.13
2022-12-03T12:38:28.558Z,17.13
2022-12-03T12:43:32.538Z,13.70
2022-12-03T12:48:35.229Z,17.53
2022-12-03T12:53:38.841Z,16.63
2022-12-03T12:58:41.560Z,17.57
2022-12-03T13:03:43.484Z,18.10
2022-12-03T13:08:48.785Z,17.00
2022-12-03T13:13:51.332Z,18.50
2022-12-03T13:18:55.020Z,15.70
2022-12-03T13:23:57.668Z,18.03
2022-12-03T13:29:06.166Z,16.67
2022-12-03T13:34:21.306Z,16.10
2022-12-03T13:39:36.800Z,18.83
2022-12-03T13:44:45.216Z,16.57
2022-12-03T13:49:52.796Z,16.47
2022-12-03T13:54:56.180Z,17.03
2022-12-03T13:59:58.239Z,16.67
2022-12-03T14:05:00.851Z,16.23
2022-12-03T14:10:03.314Z,17.03
2022-12-03T14:15:06.421Z,16.60
2022-12-03T14:20:09.013Z,16.57
2022-12-03T14:25:11.414Z,16.70
2022-12-03T14:30:13.952Z,16.50
2022-12-03T14:35:15.870Z,15.27
2022-12-03T14:40:21.993Z,16.67
2022-12-03T14:45:28.683Z,17.10
2022-12-03T14:50:30.525Z,17.40
2022-12-03T14:55:32.351Z,16.57
2022-12-03T15:00:34.209Z,18.50
2022-12-03T15:05:36.088Z,17.67
2022-12-03T15:10:38.028Z,18.07
2022-12-03T15:15:40.021Z,18.97
2022-12-03T15:20:44.281Z,18.93
2022-12-03T15:25:46.830Z,19.07
2022-12-03T15:30:49.589Z,19.17
2022-12-03T15:35:51.542Z,19.53
2022-12-03T15:40:53.584Z,18.50
2022-12-03T15:45:55.522Z,19.07
2022-12-03T15:51:00.024Z,17.93
2022-12-03T15:56:01.796Z,18.23
2022-12-03T16:01:04.391Z,19.23
2022-12-03T16:06:06.696Z,17.63
2022-12-03T16:11:08.626Z,20.77
2022-12-03T16:16:10.591Z,16.20
2022-12-03T16:21:12.584Z,19.53
2022-12-03T16:26:14.377Z,18.40
2022-12-03T16:31:16.228Z,19.90
2022-12-03T16:36:18.095Z,19.40
2022-12-03T16:41:20.020Z,21.27
2022-12-03T16:46:25.806Z,19.93
2022-12-03T16:51:30.139Z,21.10
2022-12-03T16:56:32.075Z,21.83
2022-12-03T17:01:34.059Z,19.93
2022-12-03T17:06:35.854Z,22.03
2022-12-03T17:11:37.743Z,22.70
2022-12-03T17:16:39.465Z,22.43
2022-12-03T17:21:41.331Z,20.47
2022-12-03T17:26:44.559Z,20.07
2022-12-03T17:31:46.482Z,20.90
2022-12-03T17:36:48.538Z,20.73
2022-12-03T17:41:50.534Z,20.97
2022-12-03T17:46:52.722Z,20.67
2022-12-03T17:51:54.575Z,20.43
2022-12-03T17:56:56.600Z,23.67
2022-12-03T18:01:58.563Z,20.83
2022-12-03T18:07:02.402Z,22.87
2022-12-03T18:12:04.639Z,21.63
2022-12-03T18:17:06.601Z,22.43
2022-12-03T18:22:08.611Z,21.97
2022-12-03T18:27:10.802Z,22.70
2022-12-03T18:32:27.769Z,21.90
2022-12-03T18:37:32.645Z,21.97
2022-12-03T18:42:34.413Z,23.07
2022-12-03T18:47:36.406Z,25.53
2022-12-03T18:52:38.753Z,24.37
2022-12-03T18:57:40.685Z,24.13
2022-12-03T19:08:12.473Z,23.03
2022-12-03T19:13:14.372Z,24.70
2022-12-03T19:18:16.273Z,22.30
2022-12-03T19:23:18.265Z,23.53
2022-12-03T19:28:20.336Z,23.30
2022-12-03T19:33:28.093Z,19.43
2022-12-03T19:38:30.456Z,23.30
2022-12-03T19:43:34.209Z,22.33
2022-12-03T19:48:38.086Z,20.57
2022-12-03T19:53:40.956Z,19.87
2022-12-03T19:58:45.310Z,21.13
2022-12-03T20:03:49.639Z,21.23
2022-12-03T20:08:56.048Z,21.43
2022-12-03T20:14:00.526Z,25.60
2022-12-03T20:19:05.428Z,20.37
2022-12-03T20:24:09.712Z,22.13
2022-12-03T20:29:12.202Z,20.97
2022-12-03T20:34:14.002Z,21.37
2022-12-03T20:39:15.824Z,21.90
2022-12-03T20:44:17.716Z,20.60
2022-12-03T20:49:19.475Z,19.67
2022-12-03T20:54:21.454Z,20.87
2022-12-03T20:59:23.268Z,21.07
2022-12-03T21:04:25.112Z,19.83
2022-12-03T21:09:27.148Z,17.90
2022-12-03T21:14:29.138Z,21.70
2022-12-03T21:19:31.085Z,20.40
2022-12-03T21:24:33.508Z,22.07
2022-12-03T21:29:35.626Z,19.73
2022-12-03T21:34:37.849Z,18.40
2022-12-03T21:39:39.924Z,21.77
2022-12-03T21:44:41.911Z,21.07
2022-12-03T21:49:43.910Z,20.60
2022-12-03T21:54:45.769Z,21.80
2022-12-03T21:59:47.724Z,21.00
2022-12-03T22:04:50.280Z,19.13
2022-12-03T22:09:52.363Z,20.30
2022-12-03T22:14:56.990Z,19.73
2022-12-03T22:19:58.874Z,18.80
2022-12-03T22:25:00.680Z,18.50
2022-12-03T22:30:03.787Z,20.57
2022-12-03T22:35:06.187Z,20.80
2022-12-03T22:40:08.318Z,19.73
2022-12-03T22:45:10.253Z,20.13
2022-12-03T22:50:12.226Z,18.40
2022-12-03T22:55:14.062Z,18.07
2022-12-03T23:00:32.034Z,19.23
2022-12-03T23:05:36.890Z,18.90
2022-12-03T23:10:41.163Z,19.13
2022-12-03T23:15:50.685Z,17.80
2022-12-03T23:20:55.225Z,18.63
2022-12-03T23:26:06.944Z,17.90
2022-12-03T23:31:23.406Z,18.20
2022-12-03T23:36:27.390Z,17.90
2022-12-03T23:41:29.338Z,19.30
2022-12-03T23:46:31.189Z,17.80
2022-12-03T23:51:33.318Z,16.77
2022-12-03T23:56:35.058Z,17.60
